Larkspur, CO

1:20 PM MDT on March 28, 2015 (GMT -0600)
Bernhardt's Barnyard, Spruce Mtn Rd. | | Change Station
CLOSE
Current Station
Personal Weather Station
Location: Larkspur, CO
Elevation: 6776 ft
Nearby Weather Stations

Elev 6776 ft 39.21 °N, 104.88 °W | Updated 40 seconds ago

Clear
Clear
70.9 °F
Feels Like 73 °F
N
10.7
Wind Variable Wind from South
Gusts 15.2 mph

Today
High -- | Low -- °F
--% Chance of Precip.
Yesterday
High -- | Low -- °F
Precip. -- in
6:50 AM 7:19 PM
Waxing Gibbous, 64% visible
Pressure 30.12 in
Visibility 10.0 miles
Clouds Clear
Heat Index 73 °F
Dew Point 21 °F
Humidity 15%
Rainfall 0.00 in
Snow Depth Not available.
UV 9 out of 12
Pollen 11.30 out of 12
Air Quality Not available.
Flu Activity Not available.
METAR KMNH 281917Z AUTO 29003G16KT 10SM CLR 19/M07 A3012 RMK AO2

More Conditions Fewer Conditions

Pressure 30.12 in
Visibility 10.0 miles
Clouds Clear
Heat Index 73 °F
Dew Point 21 °F
Humidity 15%
Rainfall 0.00 in
Snow Depth Not available.
UV 9 out of 12
Pollen 11.30 out of 12
Air Quality Not available.
Flu Activity Not available.
METAR KMNH 281917Z AUTO 29003G16KT 10SM CLR 19/M07 A3012 RMK AO2

More Conditions Fewer Conditions

10-Day Weather Forecast

Almanac

Astronomy

Mar. 28, 2015 Rise Set
Actual Time
Civil Twilight
Nautical Twilight
Astronomical Twilight
Moon
Length of Visible Light
Length of Day
Tomorrow will be .
, % of the Moon is Illuminated

Today's Extremes

State Highs State Lows

Community

WunderPhotos

Upload Photos

1,809,071 photos uploaded!

WunderBlogs® & News

Nearby

Air Quality

  Air Quality AQ Index Pollutant
Not available.

Snow Depth

Station Depth Elevation

Earthquake Activity

City Distance Mag. Time & Date
Minimum magnitude displayed is 2.5.

Coastal Water Temperatures

Place Temperature

Stations

Nearby Weather Stations

Station Location Temp. Windchill Dew Point Humidity Wind Precip. Elev Updated Type